createdAt,value
2023-03-12T00:01:24.034Z,99997.22
2023-03-12T00:03:52.693Z,100006.03
2023-03-12T00:06:20.945Z,100003.94
2023-03-12T00:08:48.927Z,100011.06
2023-03-12T00:11:18.965Z,100010.44
2023-03-12T00:13:55.086Z,100011.78
2023-03-12T00:16:23.588Z,100014.59
2023-03-12T00:18:53.232Z,100018.47
2023-03-12T00:21:21.974Z,100011.91
2023-03-12T00:23:52.021Z,100026.53
2023-03-12T00:26:21.045Z,100028.03
2023-03-12T00:28:50.685Z,100031.63
2023-03-12T00:31:31.942Z,100046.75
2023-03-12T00:34:01.371Z,100039.88
2023-03-12T00:36:31.590Z,100046.03
2023-03-12T00:39:01.714Z,100046.44
2023-03-12T00:41:30.510Z,100054.63
2023-03-12T00:43:58.238Z,100045.88
2023-03-12T00:46:26.210Z,100049.69
2023-03-12T00:48:54.128Z,100060.88
2023-03-12T00:51:21.855Z,100062.34
2023-03-12T00:53:50.113Z,100064.59
2023-03-12T00:56:18.069Z,100055.09
2023-03-12T00:58:47.610Z,100067.97
2023-03-12T01:01:15.365Z,100059.22
2023-03-12T01:03:43.317Z,100059.25
2023-03-12T01:06:11.188Z,100071.00
2023-03-12T01:08:39.183Z,100063.69
2023-03-12T01:11:07.064Z,100070.81
2023-03-12T01:13:34.729Z,100071.00
2023-03-12T01:16:02.298Z,100072.19
2023-03-12T01:18:30.384Z,100078.59
2023-03-12T01:20:59.507Z,100074.28
2023-03-12T01:23:27.083Z,100082.50
2023-03-12T01:25:57.473Z,100083.47
2023-03-12T01:28:25.676Z,100097.44
2023-03-12T01:30:53.640Z,100103.88
2023-03-12T01:33:23.064Z,100113.91
2023-03-12T01:35:51.131Z,100116.88
2023-03-12T01:38:21.070Z,100108.53
2023-03-12T01:40:49.005Z,100109.69
2023-03-12T01:43:25.017Z,100112.41
2023-03-12T01:46:31.737Z,100117.13
2023-03-12T01:49:24.298Z,100125.34
2023-03-12T01:52:14.926Z,100126.53
2023-03-12T01:54:59.294Z,100133.69
2023-03-12T01:57:38.087Z,100136.25
2023-03-12T02:00:19.364Z,100135.59
2023-03-12T02:02:49.867Z,100131.19
2023-03-12T02:05:45.645Z,100135.69
2023-03-12T02:08:16.575Z,100140.81
2023-03-12T02:10:44.975Z,100141.69
2023-03-12T02:13:13.421Z,100149.81
2023-03-12T02:15:46.118Z,100154.41
2023-03-12T02:18:18.218Z,100156.63
2023-03-12T02:20:49.920Z,100165.59
2023-03-12T02:23:26.652Z,100167.03
2023-03-12T02:25:56.552Z,100178.97
2023-03-12T02:28:28.589Z,100184.78
2023-03-12T02:31:00.601Z,100189.19
2023-03-12T02:33:28.539Z,100185.16
2023-03-12T02:35:56.720Z,100194.19
2023-03-12T02:38:32.559Z,100186.28
2023-03-12T02:41:21.556Z,100188.53
2023-03-12T02:44:04.989Z,100203.16
2023-03-12T02:46:34.875Z,100200.81
2023-03-12T02:49:03.015Z,100204.97
2023-03-12T02:51:30.616Z,100203.59
2023-03-12T02:54:01.420Z,100207.19
2023-03-12T02:56:29.481Z,100213.31
2023-03-12T02:58:57.364Z,100210.00
2023-03-12T03:01:26.865Z,100218.97
2023-03-12T03:03:55.003Z,100216.03
2023-03-12T03:06:23.663Z,100225.13
2023-03-12T03:08:51.287Z,100224.63
2023-03-12T03:11:19.481Z,100237.09
2023-03-12T03:13:47.057Z,100232.91
2023-03-12T03:16:15.168Z,100237.34
2023-03-12T03:18:42.814Z,100243.13
2023-03-12T03:21:16.533Z,100248.59
2023-03-12T03:23:46.348Z,100261.75
2023-03-12T03:26:15.823Z,100265.47
2023-03-12T03:28:45.990Z,100262.78
2023-03-12T03:31:15.046Z,100262.53
2023-03-12T03:33:44.395Z,100268.34
2023-03-12T03:36:15.046Z,100267.47
2023-03-12T03:38:50.866Z,100270.69
2023-03-12T03:41:20.878Z,100273.88
2023-03-12T03:43:49.452Z,100278.00
2023-03-12T03:46:19.846Z,100273.00
2023-03-12T03:48:52.364Z,100285.84
2023-03-12T03:51:21.061Z,100286.47
2023-03-12T03:53:52.081Z,100294.34
2023-03-12T03:56:20.475Z,100304.47
2023-03-12T03:58:51.067Z,100308.84
2023-03-12T04:01:20.882Z,100308.44
2023-03-12T04:03:49.635Z,100325.06
2023-03-12T04:06:17.156Z,100321.44
2023-03-12T04:08:44.766Z,100330.53
2023-03-12T04:11:17.954Z,100330.56
2023-03-12T04:13:46.598Z,100338.09
2023-03-12T04:16:17.535Z,100345.75
2023-03-12T04:18:45.919Z,100344.25
2023-03-12T04:21:15.648Z,100355.78
2023-03-12T04:23:44.384Z,100354.56
2023-03-12T04:26:13.950Z,100354.13
2023-03-12T04:28:41.568Z,100357.03
2023-03-12T04:31:11.783Z,100369.06
2023-03-12T04:33:51.954Z,100357.44
2023-03-12T04:36:23.690Z,100364.34
2023-03-12T04:38:52.832Z,100374.88
2023-03-12T04:41:26.394Z,100365.72
2023-03-12T04:44:00.240Z,100384.50
2023-03-12T04:46:27.995Z,100390.53
2023-03-12T04:48:55.990Z,100395.06
2023-03-12T04:51:24.788Z,100398.81
2023-03-12T04:53:52.386Z,100395.84
2023-03-12T04:56:19.862Z,100396.06
2023-03-12T04:58:48.260Z,100408.63
2023-03-12T05:01:31.782Z,100408.69
2023-03-12T05:03:59.655Z,100425.75
2023-03-12T05:06:27.484Z,100425.25
2023-03-12T05:08:57.138Z,100431.28
2023-03-12T05:11:25.209Z,100424.97
2023-03-12T05:13:52.806Z,100431.28
2023-03-12T05:16:20.890Z,100441.56
2023-03-12T05:18:49.256Z,100448.00
2023-03-12T05:21:20.883Z,100452.66
2023-03-12T05:23:51.505Z,100458.75
2023-03-12T05:26:25.890Z,100451.69
2023-03-12T05:28:59.944Z,100451.78
2023-03-12T05:31:33.125Z,100456.78
2023-03-12T05:34:03.159Z,100466.19
2023-03-12T05:36:32.290Z,100462.34
2023-03-12T05:39:00.882Z,100467.16
2023-03-12T05:41:32.068Z,100475.22
2023-03-12T05:44:05.927Z,100476.19
2023-03-12T05:46:33.609Z,100472.53
2023-03-12T05:49:01.364Z,100481.72
2023-03-12T05:51:29.275Z,100480.53
2023-03-12T05:53:57.191Z,100483.56
2023-03-12T05:56:25.293Z,100484.84
2023-03-12T05:58:53.275Z,100498.25
2023-03-12T06:01:28.102Z,100506.84
2023-03-12T06:03:58.591Z,100492.44
2023-03-12T06:06:26.990Z,100513.16
2023-03-12T06:08:54.990Z,100510.13
2023-03-12T06:11:22.641Z,100521.81
2023-03-12T06:13:50.278Z,100514.31
2023-03-12T06:16:23.384Z,100529.41
2023-03-12T06:18:59.249Z,100528.03
2023-03-12T06:21:30.656Z,100525.59
2023-03-12T06:23:59.373Z,100541.63
2023-03-12T06:26:45.365Z,100534.75
2023-03-12T06:29:12.944Z,100546.53
2023-03-12T06:31:42.215Z,100550.72
2023-03-12T06:34:10.479Z,100552.41
2023-03-12T06:36:38.356Z,100545.06
2023-03-12T06:39:09.820Z,100546.00
2023-03-12T06:41:37.570Z,100551.06
2023-03-12T06:44:06.537Z,100546.44
2023-03-12T06:46:34.901Z,100560.50
2023-03-12T06:49:02.907Z,100561.91
2023-03-12T06:51:30.752Z,100567.69
2023-03-12T06:53:58.369Z,100568.09
2023-03-12T06:56:26.292Z,100580.81
2023-03-12T06:58:53.844Z,100567.53
2023-03-12T07:01:21.417Z,100567.41
2023-03-12T07:03:49.161Z,100588.41
2023-03-12T07:06:21.363Z,100589.78
2023-03-12T07:08:50.083Z,100592.16
2023-03-12T07:11:18.567Z,100596.78
2023-03-12T07:13:46.430Z,100597.38
2023-03-12T07:16:14.627Z,100592.19
2023-03-12T07:18:42.918Z,100578.75
2023-03-12T07:21:10.615Z,100586.03
2023-03-12T07:23:38.239Z,100587.41
2023-03-12T07:26:06.365Z,100600.91
2023-03-12T07:28:34.694Z,100602.47
2023-03-12T07:31:04.142Z,100604.00
2023-03-12T07:33:32.327Z,100606.22
2023-03-12T07:36:00.780Z,100615.56
2023-03-12T07:38:28.951Z,100618.97
2023-03-12T07:40:58.734Z,100627.25
2023-03-12T07:43:27.333Z,100636.44
2023-03-12T07:45:55.970Z,100632.72
2023-03-12T07:48:24.164Z,100639.75
2023-03-12T07:50:52.246Z,100637.88
2023-03-12T07:53:20.235Z,100634.06
2023-03-12T07:55:48.818Z,100638.81
2023-03-12T07:58:17.948Z,100645.91
2023-03-12T08:00:46.574Z,100647.97
2023-03-12T08:03:17.333Z,100643.59
2023-03-12T08:05:45.614Z,100649.72
2023-03-12T08:08:13.571Z,100647.69
2023-03-12T08:10:41.499Z,100653.91
2023-03-12T08:13:09.447Z,100657.72
2023-03-12T08:15:38.145Z,100649.88
2023-03-12T08:18:05.923Z,100654.47
2023-03-12T08:20:33.598Z,100653.88
2023-03-12T08:23:01.565Z,100658.28
2023-03-12T08:25:30.030Z,100662.09
2023-03-12T08:27:57.920Z,100667.34
2023-03-12T08:30:27.204Z,100679.38
2023-03-12T08:32:56.701Z,100665.44
2023-03-12T08:35:24.594Z,100677.53
2023-03-12T08:37:57.081Z,100682.22
2023-03-12T08:40:24.616Z,100682.13
2023-03-12T08:42:52.330Z,100682.72
2023-03-12T08:45:19.992Z,100675.34
2023-03-12T08:47:47.488Z,100689.88
2023-03-12T08:50:16.901Z,100697.09
2023-03-12T08:52:45.340Z,100697.53
2023-03-12T08:55:12.957Z,100690.31
2023-03-12T08:57:40.815Z,100698.34
2023-03-12T09:00:15.357Z,100707.25
2023-03-12T09:02:47.377Z,100700.44
2023-03-12T09:05:14.896Z,100696.44
2023-03-12T09:07:42.472Z,100699.94
2023-03-12T09:10:10.812Z,100711.34
2023-03-12T09:12:38.345Z,100702.56
2023-03-12T09:15:06.991Z,100709.69
2023-03-12T09:17:34.553Z,100716.47
2023-03-12T09:20:02.546Z,100699.69
2023-03-12T09:22:31.025Z,100703.81
2023-03-12T09:24:58.618Z,100698.69
2023-03-12T09:27:26.383Z,100706.41
2023-03-12T09:30:00.451Z,100711.13
2023-03-12T09:32:29.036Z,100722.44
2023-03-12T09:34:56.857Z,100725.41
2023-03-12T09:37:24.654Z,100733.47
2023-03-12T09:39:55.871Z,100737.94
2023-03-12T09:42:32.032Z,100733.69
2023-03-12T09:45:03.479Z,100733.81
2023-03-12T09:47:38.031Z,100744.47
2023-03-12T09:50:23.840Z,100738.31
2023-03-12T09:52:54.760Z,100731.97
2023-03-12T09:55:23.503Z,100727.03
2023-03-12T09:57:52.331Z,100726.66
2023-03-12T10:00:24.021Z,100737.13
2023-03-12T10:03:16.754Z,100757.06
2023-03-12T10:06:14.572Z,100749.44
2023-03-12T10:09:20.978Z,100754.25
2023-03-12T10:12:08.003Z,100749.00
2023-03-12T10:14:38.913Z,100740.88
2023-03-12T10:17:15.750Z,100736.47
2023-03-12T10:20:20.979Z,100730.84
2023-03-12T10:23:16.991Z,100745.97
2023-03-12T10:26:02.949Z,100750.38
2023-03-12T10:28:53.788Z,100742.03
2023-03-12T10:31:36.324Z,100728.50
2023-03-12T10:34:15.389Z,100759.31
2023-03-12T10:36:45.840Z,100747.81
2023-03-12T10:39:20.478Z,100740.00
2023-03-12T10:41:49.215Z,100740.13
2023-03-12T10:44:25.681Z,100737.13
2023-03-12T10:47:06.571Z,100731.75
2023-03-12T10:49:36.889Z,100730.56
2023-03-12T10:52:19.530Z,100753.16
2023-03-12T10:54:50.118Z,100749.00
2023-03-12T10:57:19.107Z,100745.50
2023-03-12T10:59:49.956Z,100747.31
2023-03-12T11:02:39.182Z,100739.91
2023-03-12T11:05:20.835Z,100736.88
2023-03-12T11:07:49.291Z,100746.72
2023-03-12T11:10:23.574Z,100740.00
2023-03-12T11:12:55.405Z,100758.19
2023-03-12T11:15:28.436Z,100751.53
2023-03-12T11:18:20.097Z,100754.78
2023-03-12T11:20:50.662Z,100754.22
2023-03-12T11:23:23.731Z,100753.84
2023-03-12T11:26:04.470Z,100751.13
2023-03-12T11:28:50.619Z,100755.97
2023-03-12T11:31:31.577Z,100759.22
2023-03-12T11:34:06.080Z,100762.97
2023-03-12T11:36:56.781Z,100764.06
2023-03-12T11:39:49.561Z,100755.16
2023-03-12T11:42:34.407Z,100743.38
2023-03-12T11:45:26.924Z,100744.81
2023-03-12T11:48:24.804Z,100742.91
2023-03-12T11:51:14.078Z,100752.09
2023-03-12T11:53:55.011Z,100752.81
2023-03-12T11:56:30.514Z,100756.53
2023-03-12T11:59:19.863Z,100761.34
2023-03-12T12:01:53.754Z,100759.53
2023-03-12T12:04:43.302Z,100763.84
2023-03-12T12:07:30.219Z,100765.19
2023-03-12T12:10:10.963Z,100766.50
2023-03-12T12:13:12.177Z,100758.66
2023-03-12T12:16:08.063Z,100754.53
2023-03-12T12:18:48.129Z,100742.94
2023-03-12T12:21:37.481Z,100738.75
2023-03-12T12:24:17.027Z,100737.94
2023-03-12T12:27:36.455Z,100734.00
2023-03-12T12:30:14.283Z,100732.28
2023-03-12T12:32:50.550Z,100737.22
2023-03-12T12:35:36.746Z,100740.34
2023-03-12T12:38:14.833Z,100730.94
2023-03-12T12:40:55.559Z,100741.97
2023-03-12T12:43:35.471Z,100725.69
2023-03-12T12:46:09.175Z,100720.28
2023-03-12T12:48:40.153Z,100725.81
2023-03-12T12:51:10.803Z,100711.56
2023-03-12T12:53:54.576Z,100713.72
2023-03-12T12:56:22.168Z,100719.31
2023-03-12T12:59:21.692Z,100707.56
2023-03-12T13:01:51.935Z,100719.16
2023-03-12T13:04:35.758Z,100729.84
2023-03-12T13:07:06.325Z,100724.78
2023-03-12T13:09:44.503Z,100715.66
2023-03-12T13:12:18.656Z,100718.81
2023-03-12T13:14:47.895Z,100723.56
2023-03-12T13:17:36.639Z,100719.25
2023-03-12T13:20:11.166Z,100718.34
2023-03-12T13:22:50.202Z,100727.91
2023-03-12T13:25:30.199Z,100723.81
2023-03-12T13:28:22.525Z,100716.13
2023-03-12T13:30:52.702Z,100725.22
2023-03-12T13:33:39.065Z,100715.25
2023-03-12T13:36:23.964Z,100724.41
2023-03-12T13:38:58.289Z,100725.63
2023-03-12T13:41:35.823Z,100727.41
2023-03-12T13:44:34.514Z,100731.50
2023-03-12T13:47:11.603Z,100743.63
2023-03-12T13:50:04.837Z,100748.50
2023-03-12T13:52:49.045Z,100750.78
2023-03-12T13:55:35.921Z,100752.03
2023-03-12T13:58:17.127Z,100751.09
2023-03-12T14:00:49.843Z,100745.56
2023-03-12T14:03:29.937Z,100739.66
2023-03-12T14:06:00.662Z,100741.34
2023-03-12T14:08:52.693Z,100743.41
2023-03-12T14:11:39.952Z,100738.34
2023-03-12T14:14:42.871Z,100736.78
2023-03-12T14:17:27.502Z,100735.72
2023-03-12T14:20:07.296Z,100745.59
2023-03-12T14:22:38.045Z,100744.69
2023-03-12T14:25:15.156Z,100740.47
2023-03-12T14:27:46.693Z,100739.09
2023-03-12T14:30:29.019Z,100730.56
2023-03-12T14:33:01.364Z,100734.50
2023-03-12T14:35:51.766Z,100735.47
2023-03-12T14:38:36.459Z,100733.25
2023-03-12T14:41:06.997Z,100732.03
2023-03-12T14:43:35.709Z,100736.69
2023-03-12T14:46:06.475Z,100734.34
2023-03-12T14:48:36.808Z,100728.63
2023-03-12T14:51:06.952Z,100732.53
2023-03-12T14:53:37.413Z,100738.41
2023-03-12T14:56:16.842Z,100744.00
2023-03-12T14:58:48.495Z,100745.38
2023-03-12T15:01:22.007Z,100750.38
2023-03-12T15:03:55.505Z,100745.50
2023-03-12T15:06:32.957Z,100748.56
2023-03-12T15:09:04.689Z,100736.31
2023-03-12T15:11:35.217Z,100736.31
2023-03-12T15:14:09.230Z,100743.44
2023-03-12T15:16:37.160Z,100733.63
2023-03-12T15:19:05.114Z,100735.47
2023-03-12T15:21:36.314Z,100729.84
2023-03-12T15:24:06.269Z,100740.38
2023-03-12T15:26:38.112Z,100726.56
2023-03-12T15:29:29.858Z,100740.25
2023-03-12T15:31:59.998Z,100743.16
2023-03-12T15:34:37.556Z,100754.78
2023-03-12T15:37:24.479Z,100749.88
2023-03-12T15:39:53.904Z,100758.84
2023-03-12T15:42:25.630Z,100756.25
2023-03-12T15:45:03.461Z,100755.25
2023-03-12T15:47:34.039Z,100754.28
2023-03-12T15:50:09.972Z,100747.16
2023-03-12T15:52:37.883Z,100744.41
2023-03-12T15:55:24.482Z,100753.72
2023-03-12T15:57:55.434Z,100756.72
2023-03-12T16:00:28.418Z,100756.19
2023-03-12T16:03:06.111Z,100758.69
2023-03-12T16:05:40.070Z,100757.44
2023-03-12T16:08:34.809Z,100758.88
2023-03-12T16:11:03.568Z,100755.75
2023-03-12T16:13:32.580Z,100754.09
2023-03-12T16:16:01.001Z,100766.03
2023-03-12T16:18:29.031Z,100767.25
2023-03-12T16:20:57.039Z,100769.06
2023-03-12T16:23:27.208Z,100790.25
2023-03-12T16:25:56.743Z,100778.78
2023-03-12T16:28:25.802Z,100794.50
2023-03-12T16:30:53.674Z,100787.00
2023-03-12T16:33:24.583Z,100788.78
2023-03-12T16:35:52.913Z,100794.69
2023-03-12T16:38:20.554Z,100803.72
2023-03-12T16:40:51.174Z,100801.03
2023-03-12T16:43:24.474Z,100807.84
2023-03-12T16:45:54.318Z,100802.31
2023-03-12T16:48:24.590Z,100810.25
2023-03-12T16:50:55.780Z,100815.97
2023-03-12T16:53:24.251Z,100812.94
2023-03-12T16:56:19.605Z,100809.69
2023-03-12T16:58:50.036Z,100813.00
2023-03-12T17:01:20.543Z,100813.19
2023-03-12T17:03:50.456Z,100823.94
2023-03-12T17:06:24.311Z,100829.66
2023-03-12T17:08:53.853Z,100825.19
2023-03-12T17:11:36.153Z,100841.50
2023-03-12T17:14:15.339Z,100850.31
2023-03-12T17:16:50.990Z,100848.94
2023-03-12T17:19:18.933Z,100848.69
2023-03-12T17:21:48.744Z,100851.63
2023-03-12T17:24:17.181Z,100860.88
2023-03-12T17:26:48.885Z,100872.84
2023-03-12T17:29:16.758Z,100855.25
2023-03-12T17:31:44.276Z,100867.91
2023-03-12T17:34:12.788Z,100866.66
2023-03-12T17:36:41.138Z,100877.06
2023-03-12T17:39:09.057Z,100879.94
2023-03-12T17:41:36.805Z,100903.94
2023-03-12T17:44:04.359Z,100905.00
2023-03-12T17:46:32.764Z,100922.91
2023-03-12T17:49:00.868Z,100933.22
2023-03-12T17:51:28.709Z,100939.31
2023-03-12T17:53:56.284Z,100942.75
2023-03-12T17:56:23.906Z,100929.91
2023-03-12T17:58:51.764Z,100959.13
2023-03-12T18:01:20.132Z,100959.13
2023-03-12T18:03:51.313Z,100958.41
2023-03-12T18:06:22.005Z,100953.97
2023-03-12T18:08:49.780Z,100960.38
2023-03-12T18:11:17.629Z,100961.22
2023-03-12T18:13:48.265Z,100967.13
2023-03-12T18:16:16.872Z,100953.72
2023-03-12T18:18:44.440Z,100953.44
2023-03-12T18:21:19.217Z,100959.81
2023-03-12T18:23:47.346Z,100960.25
2023-03-12T18:26:15.427Z,100973.22
2023-03-12T18:28:44.508Z,100976.91
2023-03-12T18:31:12.807Z,100989.47
2023-03-12T18:33:42.066Z,100983.44
2023-03-12T18:36:10.096Z,100989.50
2023-03-12T18:38:38.803Z,100987.81
2023-03-12T18:41:09.093Z,100994.31
2023-03-12T18:43:37.308Z,101001.41
2023-03-12T18:46:06.048Z,100999.41
2023-03-12T18:48:36.927Z,101008.59
2023-03-12T18:51:04.924Z,101010.78
2023-03-12T18:53:34.124Z,101008.88
2023-03-12T18:56:02.015Z,101010.59
2023-03-12T18:58:30.346Z,101018.25
2023-03-12T19:01:02.286Z,101017.09
2023-03-12T19:03:36.301Z,101025.13
2023-03-12T19:06:04.974Z,101031.63
2023-03-12T19:08:32.948Z,101028.41
2023-03-12T19:11:00.645Z,101033.34
2023-03-12T19:13:28.784Z,101032.97
2023-03-12T19:16:01.466Z,101032.00
2023-03-12T19:18:29.523Z,101036.03
2023-03-12T19:21:00.034Z,101038.50
2023-03-12T19:23:27.747Z,101041.78
2023-03-12T19:25:55.533Z,101036.28
2023-03-12T19:28:23.593Z,101053.44
2023-03-12T19:30:51.559Z,101052.69
2023-03-12T19:33:19.663Z,101059.28
2023-03-12T19:35:47.703Z,101058.47
2023-03-12T19:38:15.773Z,101052.75
2023-03-12T19:40:49.746Z,101047.50
2023-03-12T19:43:18.471Z,101061.53
2023-03-12T19:45:46.865Z,101073.97
2023-03-12T19:48:15.659Z,101079.41
2023-03-12T19:50:45.274Z,101092.00
2023-03-12T19:53:13.590Z,101113.78
2023-03-12T19:55:41.514Z,101128.69
2023-03-12T19:58:09.593Z,101110.69
2023-03-12T20:00:37.392Z,101119.84
2023-03-12T20:03:05.618Z,101115.34
2023-03-12T20:05:33.472Z,101119.00
2023-03-12T20:08:02.989Z,101127.88
2023-03-12T20:10:34.933Z,101125.31
2023-03-12T20:13:03.618Z,101123.53
2023-03-12T20:15:33.254Z,101136.59
2023-03-12T20:18:01.599Z,101133.09
2023-03-12T20:20:29.834Z,101131.56
2023-03-12T20:22:58.665Z,101123.41
2023-03-12T20:25:29.380Z,101120.25
2023-03-12T20:27:59.735Z,101119.53
2023-03-12T20:30:29.261Z,101120.66
2023-03-12T20:32:57.556Z,101113.25
2023-03-12T20:35:27.071Z,101126.22
2023-03-12T20:37:55.949Z,101115.63
2023-03-12T20:40:24.291Z,101112.56
2023-03-12T20:42:52.844Z,101119.06
2023-03-12T20:45:20.950Z,101126.13
2023-03-12T20:47:54.041Z,101110.44
2023-03-12T20:50:22.112Z,101118.66
2023-03-12T20:52:50.162Z,101105.94
2023-03-12T20:55:18.067Z,101110.75
2023-03-12T20:57:46.223Z,101119.16
2023-03-12T21:00:15.030Z,101120.00
2023-03-12T21:02:44.232Z,101111.63
2023-03-12T21:05:13.748Z,101119.63
2023-03-12T21:07:42.664Z,101125.09
2023-03-12T21:10:11.710Z,101123.84
2023-03-12T21:12:42.239Z,101148.91
2023-03-12T21:15:12.737Z,101145.47
2023-03-12T21:17:41.500Z,101151.31
2023-03-12T21:20:21.920Z,101148.06
2023-03-12T21:22:49.674Z,101169.84
2023-03-12T21:25:17.559Z,101180.31
2023-03-12T21:27:51.138Z,101171.16
2023-03-12T21:30:19.644Z,101163.41
2023-03-12T21:32:47.460Z,101166.47
2023-03-12T21:35:15.100Z,101167.63
2023-03-12T21:37:42.634Z,101173.56
2023-03-12T21:40:13.505Z,101171.50
2023-03-12T21:42:41.170Z,101172.66
2023-03-12T21:45:09.757Z,101186.28
2023-03-12T21:47:38.051Z,101184.78
2023-03-12T21:50:06.985Z,101179.94
2023-03-12T21:52:42.696Z,101175.16
2023-03-12T21:55:11.549Z,101176.28
2023-03-12T21:57:39.379Z,101169.00
2023-03-12T22:00:12.616Z,101169.53
2023-03-12T22:02:41.823Z,101175.63
2023-03-12T22:05:09.900Z,101177.56
2023-03-12T22:07:38.247Z,101163.94
2023-03-12T22:10:07.490Z,101171.78
2023-03-12T22:12:35.318Z,101165.31
2023-03-12T22:15:05.383Z,101172.78
2023-03-12T22:17:33.029Z,101163.75
2023-03-12T22:20:01.135Z,101167.19
2023-03-12T22:22:29.153Z,101178.31
2023-03-12T22:24:56.816Z,101182.63
2023-03-12T22:27:24.437Z,101182.75
2023-03-12T22:29:53.111Z,101169.44
2023-03-12T22:32:20.835Z,101172.69
2023-03-12T22:34:50.006Z,101185.47
2023-03-12T22:37:17.777Z,101181.00
2023-03-12T22:39:45.451Z,101182.41
2023-03-12T22:42:13.011Z,101178.75
2023-03-12T22:44:41.771Z,101176.13
2023-03-12T22:47:09.602Z,101172.50
2023-03-12T22:49:37.463Z,101177.13
2023-03-12T22:52:05.296Z,101190.66
2023-03-12T22:54:33.777Z,101186.78
2023-03-12T22:57:01.642Z,101186.03
2023-03-12T22:59:29.190Z,101194.00
2023-03-12T23:01:57.025Z,101195.44
2023-03-12T23:04:24.615Z,101192.22
2023-03-12T23:06:55.371Z,101186.78
2023-03-12T23:09:29.667Z,101190.56
2023-03-12T23:11:57.381Z,101190.72
2023-03-12T23:14:25.710Z,101187.91
2023-03-12T23:16:53.472Z,101173.84
2023-03-12T23:19:21.291Z,101185.47
2023-03-12T23:21:49.305Z,101184.91
2023-03-12T23:24:17.034Z,101185.16
2023-03-12T23:26:45.122Z,101174.34
2023-03-12T23:29:13.231Z,101189.00
2023-03-12T23:31:41.895Z,101188.34
2023-03-12T23:34:10.141Z,101183.53
2023-03-12T23:36:38.138Z,101190.66
2023-03-12T23:39:06.317Z,101193.91
2023-03-12T23:41:34.178Z,101198.94
2023-03-12T23:44:02.458Z,101198.72
2023-03-12T23:46:30.356Z,101193.22
2023-03-12T23:48:58.490Z,101193.78
2023-03-12T23:51:33.807Z,101185.25
2023-03-12T23:54:05.645Z,101182.47
2023-03-12T23:56:36.540Z,101190.16
2023-03-12T23:59:05.858Z,101176.81
